Flight Track Log - Related Links

Times and Time Zones

All times are in EDT time to prevent confusion due to time zone crossing. See the N1253W flight status page for this flight to view local times or setup timezone preferences in your user account.

Time Position Orientation Groundspeed Altitude Reporting Facility
EDT Latitude Longitude Course Direction KTS MPH feet Rate Location/Type
Wed 08:57:56 PM 39.9833 -75.9000 190° South 142 163 1,700  Level Philadelphia TRACON
Wed 08:58:17 PM 39.9683 -75.9036 190° South 152 175 2,500 1,704 Climbing New York Center
Wed 08:59:17 PM 39.9392 -75.8556 128° Southeast 168 193 4,000 1,488 Climbing New York Center
Wed 09:00:18 PM 39.9086 -75.7908 122° Southeast 204 235 5,500 1,475 Climbing New York Center
Wed 09:01:19 PM 39.8919 -75.8386 246° West 107 123 7,000 1,765 Climbing New York Center
Wed 09:02:17 PM 39.8956 -75.9011 274° West 115 132 9,000 1,966 Climbing New York Center
Wed 09:03:18 PM 39.8953 -75.9550 270° West 162 186 10,900 1,869 Climbing New York Center
Wed 09:04:19 PM 39.8989 -76.0150 275° West 162 186 12,800 1,736 Climbing New York Center
Wed 09:05:19 PM 39.9008 -76.0664 273° West 157 181 14,400 1,627 Climbing New York Center
Wed 09:06:17 PM 39.9039 -76.1369 273° West 176 203 16,000 1,412 Climbing New York Center
Wed 09:07:18 PM 39.9075 -76.1969 275° West 184 212 17,200 1,328 Climbing New York Center
Wed 09:08:19 PM 39.9119 -76.2783 274° West 195 224 18,700 1,412 Climbing New York Center
Wed 09:09:17 PM 39.9128 -76.3517 271° West 200 230 20,000 1,322 Climbing New York Center
Wed 09:10:17 PM 39.9156 -76.4222 273° West 200 230 21,300 1,300 Climbing New York Center
Wed 09:11:17 PM 39.9186 -76.4903 273° West 200 230 22,600 1,140 Climbing New York Center
Wed 09:12:18 PM 39.9211 -76.5636 273° West 200 230 23,600 984 Climbing New York Center
Wed 09:13:19 PM 39.9239 -76.6367 273° West 200 230 24,600 1,008 Climbing New York Center
Wed 09:14:17 PM 39.9267 -76.7075 273° West 200 230 25,600 706 Climbing New York Center
Wed 09:15:18 PM 39.9311 -76.7808 275° West 200 230 26,000 198 Climbing New York Center
Wed 09:16:18 PM 39.9372 -76.8656 275° West 207 238 26,000  Level New York Center
Wed 09:17:17 PM 39.9428 -76.9581 275° West 236 272 26,000  Level New York Center
Wed 09:18:18 PM 39.9464 -77.0478 273° West 251 289 26,000  Level New York Center
Wed 09:19:18 PM 39.9539 -77.1406 276° West 257 296 26,000  Level New York Center
Wed 09:20:17 PM 39.9594 -77.2331 275° West 257 296 26,000  Level New York Center
Wed 09:21:17 PM 39.9644 -77.3283 274° West 257 296 26,000  Level New York Center
Wed 09:22:19 PM 39.9719 -77.4211 276° West 257 296 26,000  Level New York Center
Wed 09:24:33 PM 39.9847 -77.6214 275° West 265 305 26,000  Level Cleveland Center
Wed 09:25:33 PM 39.9894 -77.7189 274° West 270 311 26,000  Level Cleveland Center
Wed 09:26:33 PM 39.9939 -77.8136 274° West 270 311 26,000  Level Cleveland Center
Wed 09:27:33 PM 40.0003 -77.9108 275° West 270 311 26,000  Level Cleveland Center
Wed 09:28:33 PM 40.0047 -78.0056 274° West 270 311 26,000  Level Cleveland Center
Wed 09:29:33 PM 40.0108 -78.0975 275° West 270 311 26,000  Level Cleveland Center
Wed 09:30:33 PM 40.0150 -78.1922 273° West 270 311 26,000  Level Cleveland Center
Wed 09:31:33 PM 40.0150 -78.2897 270° West 270 311 26,000  Level Cleveland Center
Wed 09:32:33 PM 40.0208 -78.3844 275° West 270 311 26,000  Level Cleveland Center
Wed 09:33:33 PM 40.0247 -78.4792 273° West 270 311 26,000  Level Cleveland Center
Wed 09:34:33 PM 40.0411 -78.5708 283° West 270 311 26,000  Level Cleveland Center
Wed 09:35:33 PM 40.0636 -78.6653 287° West 275 316 26,000  Level Cleveland Center
Wed 09:36:33 PM 40.0839 -78.7569 286° West 275 316 26,000  Level Cleveland Center
Wed 09:37:33 PM 40.1019 -78.8486 284° West 275 316 26,000  Level Cleveland Center
Wed 09:38:33 PM 40.1242 -78.9406 288° West 275 316 26,000  Level Cleveland Center
Wed 09:39:33 PM 40.1400 -79.0325 283° West 270 311 26,000  Level Cleveland Center
Wed 09:40:33 PM 40.1497 -79.1272 278° West 264 304 26,000  Level Cleveland Center
Wed 09:41:33 PM 40.1611 -79.2219 279° West 264 304 26,000  Level Cleveland Center
Wed 09:42:33 PM 40.1747 -79.3222 280° West 264 304 26,000  Level Cleveland Center
Wed 09:43:33 PM 40.1864 -79.4144 279° West 264 304 26,000  Level Cleveland Center
Wed 09:44:33 PM 40.1997 -79.5067 281° West 259 298 26,000  Level Cleveland Center
Wed 09:45:33 PM 40.2089 -79.5989 277° West 259 298 26,000  Level Cleveland Center
Wed 09:46:33 PM 40.2200 -79.6939 279° West 259 298 26,000  Level Cleveland Center
Wed 09:47:33 PM 40.2186 -79.7892 269° West 259 298 26,000  Level Cleveland Center
Wed 09:48:33 PM 40.2192 -79.8817 270° West 259 298 26,000  Level Cleveland Center
Wed 09:49:33 PM 40.2197 -79.9794 270° West 259 298 26,000  Level Cleveland Center
Wed 09:50:33 PM 40.2181 -80.0719 269° West 259 298 26,000  Level Cleveland Center
Wed 09:51:33 PM 40.2164 -80.1697 269° West 265 305 26,000  Level Cleveland Center
Wed 09:52:33 PM 40.2147 -80.2650 269° West 270 311 26,000  Level Cleveland Center
Wed 09:53:33 PM 40.2169 -80.3600 272° West 270 311 26,000  Level Cleveland Center
Wed 09:54:33 PM 40.2192 -80.4553 272° West 270 311 26,000 -400 Level Cleveland Center
Wed 09:55:33 PM 40.2172 -80.5558 269° West 275 316 25,200 -800 Descending Cleveland Center
Wed 09:56:33 PM 40.2153 -80.6428 268° West 275 316 24,400 -900 Descending Cleveland Center
Wed 09:57:33 PM 40.2131 -80.7489 268° West 280 322 23,400 -1,000 Descending Cleveland Center
Wed 09:58:33 PM 40.2106 -80.8522 268° West 285 328 22,400 -700 Descending Cleveland Center
Wed 09:59:33 PM 40.2061 -80.9528 267° West 290 334 22,000 -200 Descending Cleveland Center
Wed 10:00:33 PM 40.2039 -81.0533 268° West 285 328 22,000 -150 Level Cleveland Center
Wed 10:01:33 PM 40.2011 -81.1511 268° West 285 328 21,700 -1,052 Descending Cleveland Center
Wed 10:03:47 PM 40.1925 -81.3942 267° West 290 334 18,600 -1,354 Descending Indianapolis Center
Wed 10:04:48 PM 40.1892 -81.5000 268° West 288 331 17,300 -1,230 Descending Indianapolis Center
Wed 10:05:49 PM 40.1858 -81.6053 268° West 286 329 16,100 -1,180 Descending Indianapolis Center
Wed 10:06:50 PM 40.1822 -81.7067 267° West 279 321 14,900 -1,220 Descending Indianapolis Center
Wed 10:07:52 PM 40.1883 -81.8067 275° West 263 303 13,600 -1,220 Descending Indianapolis Center
Wed 10:08:53 PM 40.2258 -81.8847 302° West 249 287 12,400 -1,230 Descending Indianapolis Center
Wed 10:09:54 PM 40.2258 -81.9719 270° West 241 277 11,100 -1,230 Descending Indianapolis Center
Wed 10:10:55 PM 40.2139 -82.0564 260° West 235 270 9,900 -1,188 Descending Indianapolis Center
Wed 10:11:35 PM 40.2061 -82.1150 260° West 237 273 9,100 -1,180 Descending Indianapolis Center
Wed 10:11:56 PM 40.2014 -82.1400 256° West 234 269 8,700 -1,075 Descending Indianapolis Center
Wed 10:12:42 PM 40.1992 -82.1961 267° West 227 261 7,900 -689 Descending Indianapolis Center
Wed 10:12:57 PM 40.2022 -82.2225 279° West 222 255 8,000  Climbing Indianapolis Center
Wed 10:13:43 PM 40.2022 -82.2808 270° West 226 260 7,900 -194 Descending Indianapolis Center
Wed 10:13:59 PM 40.2058 -82.3078 280° West 233 268 7,800 -1,164 Descending Indianapolis Center
Wed 10:14:50 PM 40.2067 -82.3769 271° West 227 261 6,600 -1,472 Descending Indianapolis Center
Wed 10:15:45 PM 40.2094 -82.4672 272° West 238 274 5,200 -1,352 Descending Indianapolis Center
Wed 10:16:01 PM 40.2111 -82.4808 279° West 241 277 5,000 -1,300 Descending Indianapolis Center
Wed 10:16:45 PM 40.2142 -82.5578 273° West 249 287 3,900 -1,082 Descending Indianapolis Center
Wed 10:17:02 PM 40.2153 -82.5717 276° West 246 283 3,900  Level Indianapolis Center
Wed 10:17:46 PM 40.2194 -82.6375 275° West 231 266 3,900  Level Indianapolis Center
Wed 10:18:03 PM 40.2200 -82.6467 275° West 216 249 3,900  Level Indianapolis Center
Wed 10:18:47 PM 40.2236 -82.7006 275° West 177 204 3,900 98 Level Indianapolis Center
Wed 10:19:04 PM 40.2239 -82.7097 272° West 182 209 4,000 98 Climbing Indianapolis Center
Wed 10:19:48 PM 40.2053 -82.7558 242° Southwest 158 182 4,000  Level Indianapolis Center
Wed 10:20:06 PM 40.2003 -82.7631 228° Southwest 170 196 4,000 -295 Level Indianapolis Center
Wed 10:20:49 PM 40.1828 -82.8108 244° Southwest 165 190 3,700 -393 Descending Indianapolis Center
Wed 10:21:07 PM 40.1794 -82.8178 238° Southwest 167 192 3,600 -492 Descending Indianapolis Center
Wed 10:21:50 PM 40.1606 -82.8628 241° Southwest 163 188 3,200 -393 Descending Indianapolis Center
Wed 10:22:08 PM 40.1564 -82.8686 227° Southwest 162 186 3,200 -300 Level Indianapolis Center
Wed 10:22:50 PM 40.1325 -82.9086 232° Southwest 159 183 2,900 -295 Descending Indianapolis Center
Wed 10:23:09 PM 40.1233 -82.9211 226° Southwest 159 183 2,900 -295 Level Indianapolis Center
Wed 10:23:51 PM 40.1044 -82.9492 229° Southwest 154 177 2,600 -590 Descending Indianapolis Center
Wed 10:24:10 PM 40.0969 -82.9625 234° Southwest 153 176 2,300 -689 Descending Indianapolis Center
Wed 10:24:52 PM 40.0853 -82.9850 236° Southwest 123 142 1,900 -590 Descending Indianapolis Center
Wed 10:25:11 PM 40.0828 -82.9983 256° West 127 146 1,700 -444 Descending Indianapolis Center
Wed 10:25:46 PM 40.0789 -83.0197 257° West 108 124 1,500 -387 Descending Indianapolis Center
Wed 10:26:13 PM 40.0778 -83.0372 265° West 113 130 1,300 -341 Descending Indianapolis Center
Wed 10:27:14 PM 40.0744 -83.0786 264° West 111 128 1,000 -295 Descending Indianapolis Center

Login

Don't have an account? Register now (free) for customized features, flight alerts, and more!